Wetterdaten: aktuell Donnerstag, 02.02.2023 21:25
Datum Zeit Temp. A. Feuchte A. Luftdruck Regen Wind Richtung Richtung Sonnenschein ET Solar Taupunkt Windchill Windben
02.02.2023 21:25 -2,6 C 94 % 1021,3 hPa 0,0 l/m 15,9 km/h (3 Bft) NW 317 0 min 0,000 mm 0 W/m -3,4 C -10,7 C 24,1 km/h (4 Bft)
02.02.2023 20:25 -1,9 C 94 % 1020,7 hPa 0,0 l/m 13,7 km/h (3 Bft) NW 326 0 min 0,000 mm 0 W/m -2,7 C -8,4 C 22,5 km/h (4 Bft)
02.02.2023 19:25 -1,9 C 94 % 1019,7 hPa 0,0 l/m 20,6 km/h (4 Bft) NW 320 0 min 0,000 mm 0 W/m -2,7 C -12,4 C 25,7 km/h (4 Bft)
02.02.2023 18:25 -1,9 C 95 % 1019,1 hPa 0,0 l/m 24,8 km/h (4 Bft) NW 318 0 min 0,000 mm 0 W/m -2,6 C -14,2 C 32,2 km/h (5 Bft)
02.02.2023 17:26 -1,6 C 95 % 1017,9 hPa 0,0 l/m 27,6 km/h (4 Bft) NW 319 0 min 0,000 mm 0 W/m -2,3 C -14,9 C 38,6 km/h (5 Bft)
02.02.2023 16:26 -1,4 C 96 % 1016,8 hPa 0,0 l/m 11,4 km/h (2 Bft) W-NW 297 0 min 0,000 mm 16 W/m -2,0 C -6,2 C 17,7 km/h (3 Bft)
02.02.2023 15:26 -1,3 C 96 % 1016,2 hPa 0,0 l/m 14,6 km/h (3 Bft) W-NW 301 0 min 0,000 mm 35 W/m -1,9 C -8,3 C 20,9 km/h (4 Bft)
02.02.2023 14:26 -1,1 C 96 % 1015,8 hPa 0,0 l/m 15,3 km/h (3 Bft) NW 304 0 min 0,000 mm 63 W/m -1,7 C -8,5 C 25,7 km/h (4 Bft)
02.02.2023 13:26 -0,6 C 92 % 1015,5 hPa 0,0 l/m 12,0 km/h (2 Bft) W-NW 293 0 min 0,000 mm 100 W/m -1,7 C -5,7 C 22,5 km/h (4 Bft)
02.02.2023 12:26 -0,7 C 90 % 1015,8 hPa 0,0 l/m 15,7 km/h (3 Bft) NW 305 0 min 0,000 mm 113 W/m -2,1 C -8,3 C 25,7 km/h (4 Bft)
02.02.2023 11:26 -0,6 C 90 % 1016,0 hPa 0,0 l/m 12,8 km/h (3 Bft) W-NW 295 6 min 0,000 mm 134 W/m -2,0 C -6,3 C 22,5 km/h (4 Bft)
02.02.2023 10:26 -0,8 C 89 % 1015,5 hPa 0,0 l/m 13,2 km/h (3 Bft) W-NW 295 58 min 0,000 mm 207 W/m -2,4 C -6,8 C 22,5 km/h (4 Bft)
02.02.2023 09:26 -1,2 C 92 % 1015,1 hPa 0,0 l/m 13,0 km/h (3 Bft) W-NW 286 60 min 0,000 mm 281 W/m -2,3 C -7,1 C 22,5 km/h (4 Bft)
02.02.2023 08:26 -2,3 C 95 % 1014,7 hPa 0,0 l/m 11,1 km/h (2 Bft) W-NW 286 20 min 0,000 mm 132 W/m -3,0 C -6,9 C 20,9 km/h (4 Bft)
02.02.2023 07:26 -2,6 C 97 % 1014,0 hPa 0,0 l/m 10,3 km/h (2 Bft) W-NW 300 0 min 0,000 mm 0 W/m -3,0 C -6,6 C 12,9 km/h (3 Bft)
02.02.2023 06:26 -2,2 C 98 % 1013,3 hPa 0,0 l/m 11,0 km/h (2 Bft) W-NW 290 0 min 0,000 mm 0 W/m -2,5 C -6,7 C 20,9 km/h (4 Bft)
02.02.2023 05:26 -1,8 C 98 % 1013,1 hPa 0,0 l/m 22,6 km/h (4 Bft) NW 316 0 min 0,000 mm 0 W/m -2,1 C -13,2 C 32,2 km/h (5 Bft)
02.02.2023 04:21 -1,6 C 99 % 1013,2 hPa 0,0 l/m 17,8 km/h (3 Bft) NW 308 0 min 0,000 mm 0 W/m -1,7 C -10,6 C 27,4 km/h (4 Bft)
02.02.2023 03:21 -1,6 C 99 % 1013,0 hPa 0,0 l/m 7,8 km/h (2 Bft) W-NW 301 0 min 0,000 mm 0 W/m -1,7 C -3,1 C 12,9 km/h (3 Bft)
02.02.2023 02:21 -1,8 C 99 % 1012,8 hPa 0,0 l/m 20,6 km/h (4 Bft) NW 311 0 min 0,000 mm 0 W/m -1,9 C -12,2 C 48,3 km/h (6 Bft)
02.02.2023 01:21 -1,9 C 99 % 1012,5 hPa 0,0 l/m 25,6 km/h (4 Bft) N-NW 343 0 min 0,000 mm 0 W/m -2,0 C -14,5 C 33,8 km/h (5 Bft)
02.02.2023 00:21 -0,7 C 98 % 1011,7 hPa 0,0 l/m 23,2 km/h (4 Bft) W 267 0 min 0,000 mm 0 W/m -1,0 C -12,0 C 43,5 km/h (6 Bft)
02.02.2023 00:01 -0,7 C 98 % 1012,4 hPa 0,0 l/m 19,4 km/h (3 Bft) W 269 0 min 0,000 mm 0 W/m -1,0 C -10,2 C 35,4 km/h (5 Bft)
_ Min-Zeit 07:54 10:24 00:41 - 03:29 - - - - - 21:23 00:53 03:43
Minimum _ -2,8 C 88 % 1011,3 hPa - 6,0 km/h (2 Bft) - - - - - -3,4 C -16,5 C 11,3 km/h (2 Bft)
_ Max-Zeit 13:02 00:23 21:13 00:01 00:53 - - 07:40 00:01 09:30 00:49 03:29 01:59
Maximum _ -0,5 C 99 % 1021,3 hPa 0,0 l/m 37,4 km/h
N-NW (5 Bft)
- - 2 min 0,000 mm 299 W/m -0,7 C -1,6 C 54,7 km/h
NW (7 Bft)
Durchschnitt _ -1,5 C 95 % 1015,6 hPa #0,0 l/m 16,5 km/h (3 Bft) W-NW - #2:24 h #0,000 mm 107 W/m -2,2 C -9,3 C 26,1 km/h (4 Bft)